[ ตารางข้อมูล ] [ Min-Max ] [ วันนี้2 ] [ วันนี้4 ] [ เทียบ-A 3วัน ] [ เทียบ-B 4วัน ]   

วันนี้4   [ ◀ ช่วงเก่ากว่า ] [ ช่วงที่ 36 ] [ ช่วงใหม่กว่า ▶ ] [ ล่าสุด ]    [ 3 ชั่วโมง ] [ 6 ชั่วโมง ] [ 12 ชั่วโมง ] [ 24 ชั่วโมง ]   วันนี้4

อุณภูมิในตู้ Knockdown4529  ราย 24 ชั่วโมง  ที่วัดได้ ในช่วงวันเวลา 28/07/2026 (12:35) ถึง 29/07/2026 (12:35) 
ความชื้นในตู้ Knockdown4529  ราย 24 ชั่วโมง  ที่วัดได้ ในช่วงวันเวลา 28/07/2026 (12:35) ถึง 29/07/2026 (12:35) 
การใช้ไฟฟ้าในตู้ Knockdown4529  ราย 24 ชั่วโมง  ที่วัดได้ ในช่วงวันเวลา 28/07/2026 (12:35) ถึง 29/07/2026 (12:35) 

  DS18B20SHTC3PZEM-004TWiFi 
IDDate d/m/Y & Timedata1
สูง
data2
ต่ำ
data3
นอก
temp
pcb
hum
pcb
VoltAmpWattrssiTime
 7662  29/07/2026 12:34:55  30.1  28.9  29.9  31.0  64.0  235.0  0.04  4.6  -81  12:34 
 7661  29/07/2026 12:30:11  30.0  28.9  29.9  31.0  64.1  234.3  0.04  4.6  -81  12:30 
 7660  29/07/2026 12:25:28  29.9  28.8  30.0  30.8  64.3  234.8  0.04  4.6  -80  12:25 
 7659  29/07/2026 12:20:45  29.9  28.8  30.1  30.7  64.0  234.7  0.04  4.6  -81  12:20 
 7658  29/07/2026 12:16:03  29.8  28.8  30.0  30.8  64.3  233.8  0.04  4.6  -84  12:16 
 7657  29/07/2026 12:11:20  29.8  28.7  30.0  30.6  64.4  235.4  0.04  4.6  -82  12:11 
 7656  29/07/2026 12:06:37  29.7  28.6  29.7  30.7  64.4  234.7  0.04  4.6  -82  12:06 
 7655  29/07/2026 12:01:54  29.7  28.6  29.6  30.5  64.4  235.0  0.04  4.6  -82  12:01 
 7654  29/07/2026 11:57:11  29.6  28.6  29.5  30.6  64.5  233.6  0.04  4.6  -84  11:57 
 7653  29/07/2026 11:52:27  29.6  28.5  29.7  30.5  64.5  234.4  0.04  4.6  -84  11:52 
 7652  29/07/2026 11:47:44  29.4  28.5  29.6  30.4  64.6  234.1  0.04  4.6  -83  11:47 
 7651  29/07/2026 11:42:59  29.4  28.4  29.7  30.2  64.7  234.3  0.04  4.6  -83  11:42 
 7650  29/07/2026 11:38:16  29.3  28.4  29.5  30.4  65.0  233.5  0.04  4.4  -81  11:38 
 7649  29/07/2026 11:33:33  29.2  28.4  29.3  30.3  65.0  234.0  0.04  4.6  -86  11:33 
 7648  29/07/2026 11:28:51  29.1  28.3  29.2  30.1  65.1  233.8  0.04  4.4  -87  11:28 
 7647  29/07/2026 11:24:08  29.0  28.3  29.0  30.1  65.2  234.0  0.04  4.4  -84  11:24 
 7646  29/07/2026 11:19:25  28.9  28.2  28.9  29.9  65.2  234.3  0.04  4.4  -84  11:19 
 7645  29/07/2026 11:14:42  28.9  28.2  28.8  30.0  65.2  232.8  0.04  4.4  -84  11:14 
 7644  29/07/2026 11:09:59  28.9  28.2  28.4  29.8  65.3  233.5  0.04  4.4  -83  11:09 
 7643  29/07/2026 11:05:16  28.8  28.2  28.5  29.9  65.5  233.6  0.04  4.4  -82  11:05 
 7642  29/07/2026 11:00:32  28.8  28.1  28.6  29.9  65.5  233.2  0.04  4.4  -84  11:00 
 7641  29/07/2026 10:55:48  28.8  28.1  28.5  29.7  65.4  232.9  0.04  4.4  -86  10:55 
 7640  29/07/2026 10:51:06  28.8  28.1  28.5  29.9  65.5  228.7  0.04  4.4  -84  10:51 
 7639  29/07/2026 10:46:23  28.8  28.1  28.6  29.8  65.6  231.1  0.04  4.3  -86  10:46 

Data every 5 minute.


ใช้เวลาประมวลผล 0.07247 วินาที